Impacts TAF Board
For situational awareness. Not to be used for flight planning purposes.
IDs:

KDEN - Denver Intl, CO, US

Issued at 1120 UTC 21 Sep 2018
Updated at 1146 UTC 21 Sep 2018
Potential Impact None Slight Moderate High
Time1053Z 21/12Z 21/13Z 21/14Z 21/15Z 21/16Z 21/17Z 21/18Z 21/19Z 21/20Z 21/21Z 21/22Z 21/23Z 22/00Z>>
Type OBS PRVL PRVL PRVL PRVL PRVL PRVL PRVL PRVL PRVL PRVL PRVL PRVL PRVL
VIS 10 >6 >6 >6 >6 >6 >6 >6 >6 >6 >6 >6 >6 >6
CIG 39 35 35 35 35 35 -- -- -- -- -- -- -- --
Cover BKN BKN BKN BKN BKN BKN FEW FEW FEW FEW FEW FEW FEW FEW
FltCat VFR VFR VFR VFR VFR VFR VFR VFR VFR VFR VFR VFR VFR VFR
WX -- -- -- -- -- -- -- -- -- -- -- -- -- --
WDir 110 120 120 120 120 120 150 150 150 150 150 150 150 150
WSpd 8 6 6 6 6 6 14 14 14 14 14 14 14 14
WGst -- -- -- -- -- -- 21 21 21 21 21 21 21 21
Raw TAF
KDEN 211120Z 2112/2218 12006KT P6SM FEW015 BKN035
  FM211700 15014G21KT P6SM FEW090
  FM220500 19012G18KT P6SM FEW150
  FM221100 24010KT P6SM SKC
  FM221700 30006KT P6SM SKC


Raw METAR
KDEN 211053Z 11008KT 10SM FEW015 BKN039 08/06 A3031 RMK AO2 SLP201 T00780056
KDEN 210953Z 09004KT 10SM SCT015 BKN039 09/08 A3031 RMK AO2 SLP197 T00940083
KDEN 210853Z 09004KT 10SM FEW020 SCT030 11/09 A3029 RMK AO2 SLP190 T01060089 51015

METAR Board
Radar Display
Forecast Discussion
For situational awareness. Not to be used for flight planning purposes.